createdAt,value
2023-04-22T00:01:01.583Z,66.50
2023-04-22T00:03:30.116Z,66.20
2023-04-22T00:05:58.521Z,66.28
2023-04-22T00:08:27.136Z,66.28
2023-04-22T00:10:55.295Z,66.28
2023-04-22T00:13:23.837Z,66.26
2023-04-22T00:15:51.980Z,66.11
2023-04-22T00:18:21.201Z,66.10
2023-04-22T00:20:49.523Z,66.42
2023-04-22T00:23:17.795Z,66.67
2023-04-22T00:25:46.039Z,66.68
2023-04-22T00:28:14.673Z,66.27
2023-04-22T00:30:42.850Z,66.20
2023-04-22T00:33:11.638Z,66.10
2023-04-22T00:35:39.708Z,66.06
2023-04-22T00:38:08.114Z,66.01
2023-04-22T00:40:36.478Z,65.98
2023-04-22T00:43:04.569Z,65.94
2023-04-22T00:45:32.683Z,65.94
2023-04-22T00:48:01.762Z,65.91
2023-04-22T00:50:30.710Z,65.95
2023-04-22T00:52:58.853Z,65.90
2023-04-22T00:55:27.006Z,65.96
2023-04-22T00:57:55.900Z,65.90
2023-04-22T01:00:27.423Z,65.94
2023-04-22T01:02:56.374Z,66.06
2023-04-22T01:05:25.668Z,65.97
2023-04-22T01:07:54.054Z,66.15
2023-04-22T01:10:22.401Z,66.14
2023-04-22T01:12:53.037Z,66.11
2023-04-22T01:15:21.080Z,66.23
2023-04-22T01:17:49.792Z,66.22
2023-04-22T01:20:19.823Z,66.40
2023-04-22T01:22:48.313Z,66.41
2023-04-22T01:25:17.149Z,66.40
2023-04-22T01:27:45.479Z,66.46
2023-04-22T01:30:14.686Z,66.53
2023-04-22T01:32:43.111Z,66.45
2023-04-22T01:35:11.544Z,66.50
2023-04-22T01:37:40.072Z,66.48
2023-04-22T01:40:09.629Z,66.63
2023-04-22T01:42:38.664Z,66.76
2023-04-22T01:45:08.024Z,66.80
2023-04-22T01:47:36.527Z,66.94
2023-04-22T01:50:05.469Z,67.13
2023-04-22T01:52:33.667Z,66.87
2023-04-22T01:55:02.163Z,66.79
2023-04-22T01:57:30.736Z,66.73
2023-04-22T01:59:59.333Z,66.94
2023-04-22T02:02:27.791Z,67.21
2023-04-22T02:04:56.050Z,67.13
2023-04-22T02:07:24.137Z,66.83
2023-04-22T02:09:52.602Z,66.83
2023-04-22T02:12:20.717Z,67.22
2023-04-22T02:14:49.185Z,67.42
2023-04-22T02:17:18.081Z,67.39
2023-04-22T02:19:47.338Z,66.95
2023-04-22T02:22:15.680Z,66.85
2023-04-22T02:24:43.925Z,66.61
2023-04-22T02:27:12.084Z,66.63
2023-04-22T02:29:41.886Z,66.63
2023-04-22T02:32:10.813Z,66.60
2023-04-22T02:34:39.265Z,66.54
2023-04-22T02:37:07.810Z,66.45
2023-04-22T02:39:36.775Z,66.43
2023-04-22T02:42:05.139Z,66.27
2023-04-22T02:44:33.520Z,66.29
2023-04-22T02:47:03.883Z,66.18
2023-04-22T02:49:32.183Z,66.02
2023-04-22T02:52:00.189Z,65.98
2023-04-22T02:54:28.390Z,65.89
2023-04-22T02:56:58.177Z,66.00
2023-04-22T02:59:26.533Z,65.90
2023-04-22T03:01:54.854Z,65.89
2023-04-22T03:04:41.666Z,66.02
2023-04-22T03:07:11.254Z,66.08
2023-04-22T03:09:40.211Z,66.12
2023-04-22T03:12:09.200Z,66.03
2023-04-22T03:14:38.154Z,65.93
2023-04-22T03:17:06.712Z,66.05
2023-04-22T03:19:36.967Z,66.00
2023-04-22T03:22:05.423Z,66.16
2023-04-22T03:24:34.193Z,66.26
2023-04-22T03:27:06.234Z,66.24
2023-04-22T03:29:34.699Z,66.10
2023-04-22T03:32:02.884Z,66.23
2023-04-22T03:34:31.411Z,66.18
2023-04-22T03:36:59.891Z,66.29
2023-04-22T03:39:28.474Z,66.26
2023-04-22T03:41:56.856Z,66.46
2023-04-22T03:44:25.055Z,66.48
2023-04-22T03:46:53.813Z,66.58
2023-04-22T03:49:25.440Z,66.63
2023-04-22T03:51:53.571Z,66.60
2023-04-22T03:54:24.580Z,66.60
2023-04-22T03:56:53.739Z,66.73
2023-04-22T03:59:22.979Z,66.70
2023-04-22T04:01:51.525Z,66.80
2023-04-22T04:04:23.428Z,66.88
2023-04-22T04:06:56.898Z,67.01
2023-04-22T04:09:24.939Z,66.93
2023-04-22T04:11:53.548Z,66.92
2023-04-22T04:14:21.960Z,67.12
2023-04-22T04:16:52.632Z,67.10
2023-04-22T04:19:31.922Z,67.13
2023-04-22T04:22:01.901Z,67.15
2023-04-22T04:24:31.477Z,67.09
2023-04-22T04:27:06.487Z,66.95
2023-04-22T04:29:41.574Z,66.89
2023-04-22T04:32:14.315Z,66.77
2023-04-22T04:34:43.747Z,66.62
2023-04-22T04:37:12.828Z,66.52
2023-04-22T04:39:59.626Z,66.33
2023-04-22T04:42:33.829Z,66.19
2023-04-22T04:45:06.627Z,66.09
2023-04-22T04:47:35.372Z,65.89
2023-04-22T04:50:13.122Z,65.73
2023-04-22T04:52:42.088Z,65.66
2023-04-22T04:55:10.288Z,65.59
2023-04-22T04:57:38.808Z,65.42
2023-04-22T05:00:08.233Z,65.40
2023-04-22T05:02:36.867Z,65.31
2023-04-22T05:05:06.886Z,65.05
2023-04-22T05:07:35.781Z,64.93
2023-04-22T05:10:04.643Z,64.81
2023-04-22T05:12:33.045Z,64.67
2023-04-22T05:15:01.257Z,64.68
2023-04-22T05:17:31.034Z,64.49
2023-04-22T05:19:59.956Z,64.35
2023-04-22T05:22:28.265Z,64.12
2023-04-22T05:24:56.522Z,63.76
2023-04-22T05:27:24.839Z,63.57
2023-04-22T05:29:53.113Z,63.39
2023-04-22T05:32:25.049Z,63.16
2023-04-22T05:34:54.507Z,62.98
2023-04-22T05:37:22.789Z,62.78
2023-04-22T05:39:51.709Z,62.70
2023-04-22T05:42:19.992Z,62.63
2023-04-22T05:44:48.223Z,62.31
2023-04-22T05:47:17.636Z,62.25
2023-04-22T05:49:45.857Z,61.89
2023-04-22T05:52:21.507Z,61.73
2023-04-22T05:55:16.429Z,61.63
2023-04-22T05:57:44.673Z,61.47
2023-04-22T06:00:32.314Z,60.85
2023-04-22T06:03:10.689Z,60.14
2023-04-22T06:05:39.629Z,59.56
2023-04-22T06:08:08.668Z,58.94
2023-04-22T06:10:37.505Z,58.55
2023-04-22T06:13:06.610Z,58.47
2023-04-22T06:15:36.324Z,58.06
2023-04-22T06:18:05.030Z,58.02
2023-04-22T06:20:33.251Z,57.80
2023-04-22T06:23:01.696Z,57.50
2023-04-22T06:25:29.743Z,57.14
2023-04-22T06:27:59.201Z,56.28
2023-04-22T06:30:27.659Z,55.47
2023-04-22T06:32:56.158Z,55.04
2023-04-22T06:35:24.347Z,54.38
2023-04-22T06:37:52.885Z,53.78
2023-04-22T06:40:21.743Z,52.99
2023-04-22T06:43:28.956Z,52.33
2023-04-22T06:46:11.055Z,51.79
2023-04-22T06:48:54.656Z,51.17
2023-04-22T06:51:46.122Z,50.37
2023-04-22T06:54:14.425Z,50.29
2023-04-22T06:56:42.513Z,50.43
2023-04-22T06:59:11.318Z,50.64
2023-04-22T07:01:39.660Z,50.54
2023-04-22T07:04:08.480Z,50.78
2023-04-22T07:06:36.980Z,50.86
2023-04-22T07:09:05.565Z,50.66
2023-04-22T07:11:34.628Z,50.05
2023-04-22T07:14:07.012Z,49.79
2023-04-22T07:16:35.311Z,49.62
2023-04-22T07:19:03.674Z,49.50
2023-04-22T07:21:33.283Z,49.49
2023-04-22T07:24:01.352Z,49.63
2023-04-22T07:26:32.144Z,49.63
2023-04-22T07:29:00.869Z,49.59
2023-04-22T07:31:28.966Z,49.13
2023-04-22T07:33:57.229Z,48.73
2023-04-22T07:36:25.706Z,48.51
2023-04-22T07:38:53.897Z,47.92
2023-04-22T07:41:22.080Z,48.02
2023-04-22T07:43:50.537Z,47.75
2023-04-22T07:46:18.958Z,46.62
2023-04-22T07:48:47.395Z,46.48
2023-04-22T07:51:15.595Z,46.62
2023-04-22T07:53:43.761Z,46.79
2023-04-22T07:56:13.155Z,46.83
2023-04-22T07:58:41.363Z,46.76
2023-04-22T08:01:10.058Z,46.73
2023-04-22T08:03:38.819Z,46.92
2023-04-22T08:06:07.464Z,46.67
2023-04-22T08:08:35.665Z,46.52
2023-04-22T08:11:03.931Z,46.57
2023-04-22T08:13:32.217Z,46.29
2023-04-22T08:16:03.273Z,45.93
2023-04-22T08:18:31.953Z,45.89
2023-04-22T08:21:00.520Z,45.97
2023-04-22T08:23:29.287Z,46.06
2023-04-22T08:25:57.340Z,46.22
2023-04-22T08:28:26.073Z,45.15
2023-04-22T08:30:54.503Z,44.93
2023-04-22T08:33:23.789Z,45.08
2023-04-22T08:35:53.563Z,45.28
2023-04-22T08:38:22.356Z,44.76
2023-04-22T08:40:52.141Z,44.79
2023-04-22T08:43:22.411Z,44.58
2023-04-22T08:45:50.878Z,44.39
2023-04-22T08:48:20.402Z,44.36
2023-04-22T08:50:49.544Z,44.64
2023-04-22T08:53:17.643Z,44.34
2023-04-22T08:55:46.216Z,44.14
2023-04-22T08:58:14.706Z,44.20
2023-04-22T09:00:43.865Z,44.04
2023-04-22T09:03:13.189Z,43.51
2023-04-22T09:05:41.820Z,43.25
2023-04-22T09:08:10.903Z,43.16
2023-04-22T09:10:39.611Z,43.07
2023-04-22T09:13:07.896Z,43.06
2023-04-22T09:15:36.049Z,42.94
2023-04-22T09:18:05.737Z,42.43
2023-04-22T09:20:34.005Z,41.89
2023-04-22T09:23:04.633Z,42.33
2023-04-22T09:25:35.730Z,41.99
2023-04-22T09:28:03.788Z,42.48
2023-04-22T09:30:37.983Z,43.42
2023-04-22T09:33:07.236Z,43.20
2023-04-22T09:35:37.220Z,43.69
2023-04-22T09:38:09.386Z,44.26
2023-04-22T09:40:39.070Z,44.53
2023-04-22T09:43:08.255Z,44.37
2023-04-22T09:45:39.982Z,43.76
2023-04-22T09:48:12.064Z,43.87
2023-04-22T09:50:42.257Z,43.75
2023-04-22T09:53:11.772Z,43.70
2023-04-22T09:55:42.125Z,43.20
2023-04-22T09:58:14.860Z,43.23
2023-04-22T10:00:43.635Z,42.55
2023-04-22T10:03:11.996Z,42.47
2023-04-22T10:05:41.502Z,41.58
2023-04-22T10:08:10.838Z,41.23
2023-04-22T10:10:39.663Z,40.51
2023-04-22T10:13:08.079Z,40.55
2023-04-22T10:15:40.741Z,41.29
2023-04-22T10:18:11.769Z,41.24
2023-04-22T10:20:41.181Z,41.37
2023-04-22T10:23:16.029Z,40.28
2023-04-22T10:25:52.011Z,39.48
2023-04-22T10:28:21.756Z,39.24
2023-04-22T10:30:49.858Z,39.10
2023-04-22T10:33:21.071Z,39.06
2023-04-22T10:36:18.178Z,38.08
2023-04-22T10:38:55.728Z,38.11
2023-04-22T10:41:25.613Z,37.30
2023-04-22T10:44:01.393Z,37.23
2023-04-22T10:46:33.034Z,36.96
2023-04-22T10:49:15.780Z,37.25
2023-04-22T10:51:44.872Z,37.01
2023-04-22T10:54:31.447Z,36.38
2023-04-22T10:57:08.100Z,36.01
2023-04-22T10:59:47.944Z,35.90
2023-04-22T11:02:18.250Z,35.56
2023-04-22T11:04:46.629Z,35.67
2023-04-22T11:07:22.658Z,35.46
2023-04-22T11:09:52.180Z,34.70
2023-04-22T11:12:35.513Z,33.81
2023-04-22T11:15:13.292Z,33.97
2023-04-22T11:17:46.381Z,34.04
2023-04-22T11:20:17.583Z,33.99
2023-04-22T11:22:47.325Z,34.21
2023-04-22T11:25:15.579Z,33.11
2023-04-22T11:27:44.550Z,32.56
2023-04-22T11:30:17.589Z,33.35
2023-04-22T11:32:47.340Z,34.27
2023-04-22T11:35:16.464Z,35.05
2023-04-22T11:37:51.790Z,34.61
2023-04-22T11:40:30.888Z,34.12
2023-04-22T11:43:03.660Z,33.29
2023-04-22T11:45:35.396Z,32.62
2023-04-22T11:48:05.555Z,33.05
2023-04-22T11:50:35.817Z,33.76
2023-04-22T11:53:05.230Z,34.03
2023-04-22T11:55:34.956Z,33.85
2023-04-22T11:58:17.344Z,33.63
2023-04-22T12:00:47.042Z,32.74
2023-04-22T12:03:28.684Z,31.62
2023-04-22T12:05:59.053Z,31.26
2023-04-22T12:08:39.890Z,30.51
2023-04-22T12:11:09.538Z,29.55
2023-04-22T12:13:37.625Z,29.43
2023-04-22T12:16:17.902Z,28.68
2023-04-22T12:18:53.524Z,28.79
2023-04-22T12:21:28.539Z,28.75
2023-04-22T12:24:07.989Z,28.44
2023-04-22T12:26:38.099Z,26.67
2023-04-22T12:29:07.000Z,26.13
2023-04-22T12:31:36.043Z,26.08
2023-04-22T12:34:04.525Z,26.57
2023-04-22T12:36:33.676Z,26.43
2023-04-22T12:39:01.853Z,26.64
2023-04-22T12:41:31.000Z,27.00
2023-04-22T12:43:59.006Z,26.58
2023-04-22T12:46:27.182Z,26.22
2023-04-22T12:48:55.342Z,26.11
2023-04-22T12:51:23.694Z,25.77
2023-04-22T12:53:51.976Z,25.57
2023-04-22T12:56:20.313Z,26.00
2023-04-22T12:58:48.416Z,26.90
2023-04-22T13:01:16.804Z,27.42
2023-04-22T13:03:45.001Z,27.50
2023-04-22T13:06:13.359Z,27.96
2023-04-22T13:08:41.986Z,28.33
2023-04-22T13:11:10.110Z,28.10
2023-04-22T13:13:38.333Z,28.33
2023-04-22T13:16:06.485Z,28.49
2023-04-22T13:18:36.354Z,28.81
2023-04-22T13:21:06.469Z,29.28
2023-04-22T13:23:35.072Z,30.13
2023-04-22T13:26:03.113Z,30.93
2023-04-22T13:28:31.433Z,31.89
2023-04-22T13:30:59.602Z,32.97
2023-04-22T13:33:27.775Z,33.63
2023-04-22T13:35:55.956Z,34.18
2023-04-22T13:38:24.201Z,34.85
2023-04-22T13:40:52.515Z,35.25
2023-04-22T13:43:20.983Z,35.76
2023-04-22T13:45:49.537Z,36.09
2023-04-22T13:48:18.057Z,35.88
2023-04-22T13:50:46.528Z,35.31
2023-04-22T13:53:15.009Z,35.42
2023-04-22T13:55:43.477Z,35.85
2023-04-22T13:58:11.620Z,35.67
2023-04-22T14:00:39.973Z,35.57
2023-04-22T14:03:08.227Z,35.71
2023-04-22T14:05:37.155Z,35.35
2023-04-22T14:08:05.486Z,35.18
2023-04-22T14:10:33.798Z,35.59
2023-04-22T14:13:02.149Z,35.52
2023-04-22T14:15:30.497Z,35.63
2023-04-22T14:17:58.778Z,35.22
2023-04-22T14:20:27.190Z,35.19
2023-04-22T14:22:56.097Z,34.76
2023-04-22T14:25:24.447Z,35.07
2023-04-22T14:27:53.073Z,35.15
2023-04-22T14:30:22.129Z,34.99
2023-04-22T14:32:50.671Z,34.29
2023-04-22T14:35:19.293Z,33.84
2023-04-22T14:37:47.977Z,33.54
2023-04-22T14:40:16.899Z,32.92
2023-04-22T14:42:45.151Z,32.64
2023-04-22T14:45:14.858Z,32.78
2023-04-22T14:47:43.607Z,32.36
2023-04-22T14:50:11.975Z,32.06
2023-04-22T14:52:41.195Z,32.00
2023-04-22T14:55:21.860Z,32.39
2023-04-22T14:57:53.427Z,32.59
2023-04-22T15:00:21.766Z,32.83
2023-04-22T15:02:50.351Z,32.87
2023-04-22T15:05:18.881Z,32.82
2023-04-22T15:07:47.272Z,33.32
2023-04-22T15:10:16.990Z,33.47
2023-04-22T15:12:45.569Z,33.69
2023-04-22T15:15:16.117Z,34.01
2023-04-22T15:17:44.771Z,34.13
2023-04-22T15:20:13.564Z,34.16
2023-04-22T15:22:42.041Z,34.41
2023-04-22T15:25:10.673Z,34.96
2023-04-22T15:27:39.069Z,35.53
2023-04-22T15:30:07.984Z,35.90
2023-04-22T15:32:39.197Z,36.04
2023-04-22T15:35:08.196Z,35.96
2023-04-22T15:37:37.347Z,36.08
2023-04-22T15:40:07.746Z,35.86
2023-04-22T15:42:38.103Z,35.62
2023-04-22T15:45:07.543Z,35.81
2023-04-22T15:47:36.391Z,35.58
2023-04-22T15:50:09.509Z,35.41
2023-04-22T15:52:38.450Z,35.50
2023-04-22T15:55:08.047Z,35.59
2023-04-22T15:57:36.643Z,35.97
2023-04-22T16:00:11.981Z,36.93
2023-04-22T16:02:45.083Z,37.38
2023-04-22T16:05:14.930Z,37.36
2023-04-22T16:07:43.491Z,37.34
2023-04-22T16:10:12.096Z,37.76
2023-04-22T16:12:42.231Z,37.72
2023-04-22T16:15:11.183Z,38.26
2023-04-22T16:17:40.296Z,38.85
2023-04-22T16:20:09.618Z,39.28
2023-04-22T16:22:38.166Z,39.49
2023-04-22T16:25:07.690Z,39.69
2023-04-22T16:27:36.543Z,40.24
2023-04-22T16:30:06.006Z,39.85
2023-04-22T16:32:34.332Z,39.59
2023-04-22T16:35:02.648Z,40.31
2023-04-22T16:37:31.815Z,41.09
2023-04-22T16:40:01.238Z,41.35
2023-04-22T16:42:29.777Z,41.33
2023-04-22T16:44:58.120Z,41.64
2023-04-22T16:47:27.154Z,41.85
2023-04-22T16:49:55.306Z,41.72
2023-04-22T16:52:23.406Z,42.17
2023-04-22T16:54:51.793Z,42.89
2023-04-22T16:57:20.116Z,43.37
2023-04-22T16:59:48.353Z,43.65
2023-04-22T17:02:16.696Z,43.70
2023-04-22T17:04:44.943Z,44.06
2023-04-22T17:07:13.224Z,44.27
2023-04-22T17:09:41.841Z,44.51
2023-04-22T17:12:10.107Z,44.81
2023-04-22T17:14:38.736Z,45.03
2023-04-22T17:17:07.236Z,45.42
2023-04-22T17:19:36.813Z,45.82
2023-04-22T17:22:05.091Z,46.08
2023-04-22T17:24:33.955Z,46.14
2023-04-22T17:27:03.018Z,46.55
2023-04-22T17:29:31.154Z,46.83
2023-04-22T17:31:59.176Z,46.78
2023-04-22T17:34:27.412Z,46.72
2023-04-22T17:36:55.656Z,46.62
2023-04-22T17:39:23.721Z,46.58
2023-04-22T17:41:51.684Z,46.61
2023-04-22T17:44:19.722Z,46.72
2023-04-22T17:46:47.900Z,46.67
2023-04-22T17:49:16.926Z,46.69
2023-04-22T17:51:45.820Z,46.93
2023-04-22T17:54:14.196Z,47.19
2023-04-22T17:56:42.315Z,47.37
2023-04-22T17:59:11.456Z,47.66
2023-04-22T18:01:39.523Z,47.64
2023-04-22T18:04:07.885Z,47.70
2023-04-22T18:06:36.833Z,47.81
2023-04-22T18:09:04.903Z,47.81
2023-04-22T18:11:33.386Z,47.55
2023-04-22T18:14:01.382Z,47.12
2023-04-22T18:16:29.522Z,47.20
2023-04-22T18:18:59.135Z,47.29
2023-04-22T18:21:29.452Z,47.28
2023-04-22T18:23:57.822Z,47.13
2023-04-22T18:26:25.845Z,46.96
2023-04-22T18:28:53.803Z,47.06
2023-04-22T18:31:21.839Z,47.39
2023-04-22T18:33:49.812Z,47.64
2023-04-22T18:36:18.891Z,47.89
2023-04-22T18:38:46.911Z,48.07
2023-04-22T18:41:14.900Z,47.90
2023-04-22T18:43:43.092Z,47.98
2023-04-22T18:46:11.116Z,48.15
2023-04-22T18:48:39.174Z,48.37
2023-04-22T18:51:07.250Z,48.31
2023-04-22T18:53:35.629Z,48.34
2023-04-22T18:56:05.349Z,48.67
2023-04-22T18:58:33.773Z,48.74
2023-04-22T19:01:01.909Z,48.64
2023-04-22T19:03:30.254Z,48.81
2023-04-22T19:05:58.366Z,49.10
2023-04-22T19:08:27.381Z,49.18
2023-04-22T19:10:55.423Z,49.27
2023-04-22T19:15:56.584Z,49.73
2023-04-22T19:18:24.847Z,49.89
2023-04-22T19:20:52.830Z,50.19
2023-04-22T19:23:20.831Z,50.21
2023-04-22T19:25:49.222Z,50.14
2023-04-22T19:28:17.515Z,50.21
2023-04-22T19:30:46.176Z,50.11
2023-04-22T19:33:15.005Z,50.02
2023-04-22T19:35:43.503Z,50.05
2023-04-22T19:38:12.249Z,49.84
2023-04-22T19:40:40.237Z,49.53
2023-04-22T19:43:08.168Z,49.17
2023-04-22T19:45:36.445Z,49.20
2023-04-22T19:48:05.857Z,49.15
2023-04-22T19:50:34.572Z,49.10
2023-04-22T19:53:03.661Z,49.29
2023-04-22T19:55:36.618Z,49.35
2023-04-22T19:58:05.452Z,49.66
2023-04-22T20:00:35.195Z,49.86
2023-04-22T20:03:04.310Z,49.99
2023-04-22T20:05:33.111Z,50.13
2023-04-22T20:08:01.966Z,50.22
2023-04-22T20:10:30.753Z,50.17
2023-04-22T20:12:59.548Z,50.19
2023-04-22T20:15:27.774Z,50.08
2023-04-22T20:17:56.188Z,50.19
2023-04-22T20:20:24.396Z,50.22
2023-04-22T20:22:53.406Z,50.02
2023-04-22T20:25:23.224Z,49.82
2023-04-22T20:27:51.796Z,49.44
2023-04-22T20:30:19.935Z,49.22
2023-04-22T20:37:23.502Z,48.91
2023-04-22T20:39:52.515Z,48.97
2023-04-22T20:42:22.459Z,49.23
2023-04-22T20:44:51.697Z,49.16
2023-04-22T20:47:20.956Z,49.15
2023-04-22T20:49:49.449Z,48.91
2023-04-22T20:52:17.665Z,49.04
2023-04-22T20:54:46.438Z,48.93
2023-04-22T20:57:15.134Z,48.85
2023-04-22T20:59:43.214Z,48.55
2023-04-22T21:02:11.541Z,48.53
2023-04-22T21:04:40.876Z,48.37
2023-04-22T21:16:32.571Z,48.76
2023-04-22T21:19:01.344Z,48.90
2023-04-22T21:21:34.166Z,48.93
2023-04-22T21:24:02.773Z,49.02
2023-04-22T21:26:31.222Z,49.17
2023-04-22T21:29:00.762Z,49.06
2023-04-22T21:31:29.706Z,49.09
2023-04-22T21:34:00.482Z,49.07
2023-04-22T21:36:28.555Z,48.96
2023-04-22T21:38:56.931Z,48.99
2023-04-22T21:41:24.980Z,48.99
2023-04-22T21:43:53.134Z,49.34
2023-04-22T21:46:22.550Z,49.50
2023-04-22T21:48:50.558Z,49.41
2023-04-22T21:51:19.445Z,49.41
2023-04-22T21:53:47.431Z,49.45
2023-04-22T21:56:16.036Z,49.29
2023-04-22T21:58:44.234Z,49.36
2023-04-22T22:01:12.720Z,49.48
2023-04-22T22:03:41.020Z,49.80
2023-04-22T22:06:09.601Z,50.01
2023-04-22T22:08:38.812Z,49.96
2023-04-22T22:11:10.668Z,49.97
2023-04-22T22:13:43.157Z,50.09
2023-04-22T22:16:11.433Z,50.03
2023-04-22T22:18:39.766Z,50.04
2023-04-22T22:21:08.142Z,49.86
2023-04-22T22:23:36.479Z,49.84
2023-04-22T22:26:04.764Z,49.87
2023-04-22T22:28:33.810Z,49.87
2023-04-22T22:31:02.830Z,50.07
2023-04-22T22:33:31.580Z,50.40
2023-04-22T22:36:00.213Z,50.78
2023-04-22T22:43:02.831Z,51.18
2023-04-22T22:45:32.033Z,51.42
2023-04-22T22:48:00.291Z,51.28
2023-04-22T22:50:29.324Z,51.06
2023-04-22T22:52:58.218Z,50.86
2023-04-22T22:55:26.859Z,50.66
2023-04-22T22:57:55.356Z,50.33
2023-04-22T23:00:23.900Z,50.04
2023-04-22T23:02:52.527Z,49.85
2023-04-22T23:05:21.135Z,49.78
2023-04-22T23:07:49.471Z,49.68
2023-04-22T23:10:17.675Z,49.81
2023-04-22T23:12:46.325Z,49.69
2023-04-22T23:15:15.414Z,49.75
2023-04-22T23:17:43.679Z,49.72
2023-04-22T23:20:12.643Z,49.40
2023-04-22T23:22:41.432Z,49.28
2023-04-22T23:25:10.956Z,49.33
2023-04-22T23:27:39.424Z,49.29
2023-04-22T23:30:08.933Z,49.01
2023-04-22T23:32:41.031Z,48.95
2023-04-22T23:35:14.374Z,49.17
2023-04-22T23:37:46.580Z,49.42
2023-04-22T23:40:18.403Z,49.15
2023-04-22T23:42:49.750Z,49.00
2023-04-22T23:45:20.371Z,49.03
2023-04-22T23:47:51.859Z,48.69
2023-04-22T23:50:22.656Z,48.49
2023-04-22T23:52:53.535Z,48.54
2023-04-22T23:55:24.086Z,48.61
2023-04-22T23:57:55.759Z,48.35
